Time;durP1;ratioP1;P1;durP2;ratioP2;P2;SDS_P1;SDS_P2;PMS_P1;PMS_P2;Temp;Humidity;BMP_temperature;BMP_pressure;BME280_temperature;BME280_humidity;BME280_pressure;Samples;Min_cycle;Max_cycle;Signal;HPM_P1;HPM_P2
2023/10/08 00:00:39;;;;;;;0.10;0.10;;;;;;;15.79;100.00;99733.41;5112142;28;20198;-58
2023/10/08 00:03:13;;;;;;;0.10;0.10;;;;;;;15.88;100.00;99732.69;5113582;28;20202;-58
2023/10/08 00:06:06;;;;;;;0.10;0.10;;;;;;;15.93;100.00;99732.34;5113625;28;20285;-58
2023/10/08 00:08:59;;;;;;;0.10;0.10;;;;;;;16.01;100.00;99732.59;5113184;28;20245;-58
2023/10/08 00:11:52;;;;;;;0.10;0.10;;;;;;;16.08;100.00;99733.81;5113549;28;20197;-58
2023/10/08 00:14:44;;;;;;;0.10;0.10;;;;;;;16.09;100.00;99722.16;5111764;28;20214;-58
2023/10/08 00:17:31;;;;;;;0.10;0.10;;;;;;;16.07;100.00;99729.44;5113395;28;20243;-58
2023/10/08 00:20:25;;;;;;;0.10;0.10;;;;;;;15.92;100.00;99733.28;5113485;28;20423;-58
2023/10/08 00:23:13;;;;;;;0.10;0.10;;;;;;;15.90;100.00;99738.75;5113340;28;20186;-58
2023/10/08 00:26:04;;;;;;;0.10;0.10;;;;;;;15.91;100.00;99729.78;5113507;28;20706;-58
2023/10/08 00:28:52;;;;;;;0.10;0.10;;;;;;;15.80;100.00;99726.22;5112128;28;20215;-58
2023/10/08 00:31:40;;;;;;;0.10;0.10;;;;;;;15.74;100.00;99730.25;5113263;28;20248;-58
2023/10/08 00:34:27;;;;;;;0.10;0.10;;;;;;;15.60;100.00;99725.94;5113205;28;20295;-58
2023/10/08 00:37:15;;;;;;;0.10;0.10;;;;;;;15.74;100.00;99727.56;5113363;28;20209;-58
2023/10/08 00:40:10;;;;;;;0.10;0.10;;;;;;;15.70;100.00;99729.59;5117400;28;20194;-58
2023/10/08 00:42:57;;;;;;;0.00;0.00;;;;;;;15.72;100.00;99742.84;5117424;28;20676;-58
2023/10/08 00:45:50;;;;;;;0.10;0.10;;;;;;;15.69;100.00;99743.94;5114822;28;20316;-59
2023/10/08 00:48:37;;;;;;;0.10;0.10;;;;;;;15.52;100.00;99746.97;5117165;28;20351;-58
2023/10/08 00:51:31;;;;;;;0.10;0.10;;;;;;;15.50;100.00;99748.06;5117160;28;20202;-58
2023/10/08 00:54:19;;;;;;;0.10;0.10;;;;;;;15.49;100.00;99749.03;5116926;28;20194;-58
2023/10/08 00:57:07;;;;;;;0.10;0.10;;;;;;;15.17;100.00;99746.94;5116026;28;20320;-58
2023/10/08 00:59:55;;;;;;;0.10;0.10;;;;;;;15.11;100.00;99737.56;5115730;28;20186;-58
2023/10/08 01:02:46;;;;;;;0.00;0.00;;;;;;;15.02;100.00;99750.72;5116836;28;20321;-58
2023/10/08 01:05:46;;;;;;;0.10;0.10;;;;;;;14.97;100.00;99764.41;5116760;28;20190;-58
2023/10/08 01:08:36;;;;;;;0.00;0.00;;;;;;;14.98;100.00;99758.09;5116814;28;20194;-58
2023/10/08 01:11:33;;;;;;;0.00;0.00;;;;;;;15.03;100.00;99771.94;5116698;28;20217;-58
2023/10/08 01:14:31;;;;;;;0.10;0.10;;;;;;;14.96;100.00;99765.38;5115329;28;20198;-58
2023/10/08 01:17:19;;;;;;;0.10;0.10;;;;;;;15.01;100.00;99765.03;5116443;28;20746;-58
2023/10/08 01:20:21;;;;;;;0.10;0.10;;;;;;;15.00;100.00;99763.31;5116416;28;20225;-58
2023/10/08 01:23:13;;;;;;;0.10;0.10;;;;;;;15.09;100.00;99760.84;5115550;28;20220;-58
2023/10/08 01:26:10;;;;;;;0.10;0.10;;;;;;;15.15;100.00;99764.84;5115503;28;20202;-58
2023/10/08 01:28:59;;;;;;;0.10;0.10;;;;;;;15.24;100.00;99755.31;5114037;28;20185;-58
2023/10/08 01:31:47;;;;;;;0.10;0.10;;;;;;;15.01;100.00;99765.03;5115183;28;20263;-58
2023/10/08 01:34:36;;;;;;;0.10;0.10;;;;;;;14.94;100.00;99772.63;5116212;28;20217;-58
2023/10/08 01:37:23;;;;;;;0.10;0.10;;;;;;;14.95;100.00;99771.66;5116267;28;20320;-58
2023/10/08 01:40:13;;;;;;;0.10;0.10;;;;;;;15.02;100.00;99766.72;5115026;28;20664;-58
2023/10/08 01:43:00;;;;;;;0.10;0.10;;;;;;;14.89;100.00;99782.78;5115265;28;20257;-58
2023/10/08 01:45:51;;;;;;;0.10;0.10;;;;;;;14.85;100.00;99791.94;5113777;28;20252;-57
2023/10/08 01:48:39;;;;;;;0.10;0.10;;;;;;;14.86;100.00;99780.31;5115206;28;20203;-58
2023/10/08 01:51:36;;;;;;;0.10;0.10;;;;;;;14.89;100.00;99753.44;5116018;28;20676;-58
2023/10/08 01:54:25;;;;;;;0.10;0.10;;;;;;;14.82;100.00;99745.00;5115950;28;20198;-58
2023/10/08 01:57:14;;;;;;;0.10;0.10;;;;;;;15.08;100.00;99743.13;5115975;28;20205;-57
2023/10/08 02:00:01;;;;;;;0.10;0.10;;;;;;;14.98;100.00;99739.44;5113517;28;20190;-58
2023/10/08 02:02:59;;;;;;;0.10;0.10;;;;;;;15.12;100.00;99735.75;5115714;28;20206;-57
2023/10/08 02:05:47;;;;;;;0.10;0.10;;;;;;;15.16;100.00;99734.56;5115704;28;20186;-58
2023/10/08 02:08:34;;;;;;;0.00;0.00;;;;;;;15.16;100.00;99742.56;5114657;28;20190;-57
2023/10/08 02:11:21;;;;;;;0.10;0.10;;;;;;;15.14;100.00;99736.47;5114642;28;20317;-57
2023/10/08 02:14:09;;;;;;;0.10;0.10;;;;;;;15.26;100.00;99740.94;5113313;28;20212;-58
2023/10/08 02:16:57;;;;;;;0.10;0.10;;;;;;;15.28;100.00;99749.66;5115389;28;20222;-58
2023/10/08 02:19:44;;;;;;;0.10;0.10;;;;;;;15.25;100.00;99752.56;5114472;28;20232;-58
2023/10/08 02:22:33;;;;;;;0.10;0.10;;;;;;;15.34;100.00;99754.53;5115472;28;20210;-57
2023/10/08 02:25:22;;;;;;;0.10;0.10;;;;;;;15.34;100.00;99756.34;5115509;28;20270;-58
2023/10/08 02:28:09;;;;;;;0.10;0.10;;;;;;;15.34;100.00;99759.03;5115298;28;20193;-58
2023/10/08 02:30:58;;;;;;;0.00;0.00;;;;;;;15.13;100.00;99780.13;5114931;28;20209;-58
2023/10/08 02:33:45;;;;;;;0.10;0.10;;;;;;;14.89;100.00;99794.31;5115198;28;20190;-58
2023/10/08 02:36:32;;;;;;;0.10;0.10;;;;;;;14.89;100.00;99798.78;5114687;28;20213;-58
2023/10/08 02:39:21;;;;;;;0.10;0.10;;;;;;;14.91;100.00;99804.84;5114216;28;20194;-58
2023/10/08 02:42:10;;;;;;;0.10;0.10;;;;;;;14.85;100.00;99799.94;5115129;28;20194;-58
2023/10/08 02:45:00;;;;;;;0.10;0.10;;;;;;;14.70;100.00;99793.91;5113478;28;20205;-58
2023/10/08 02:47:49;;;;;;;0.10;0.10;;;;;;;14.71;100.00;99808.09;5113908;28;20228;-58
2023/10/08 02:50:37;;;;;;;0.10;0.10;;;;;;;14.68;100.00;99817.16;5115090;28;20257;-58
2023/10/08 02:53:25;;;;;;;0.10;0.10;;;;;;;14.72;100.00;99815.13;5114725;28;20197;-58
2023/10/08 02:56:16;;;;;;;0.10;0.10;;;;;;;14.62;100.00;99809.59;5113383;28;20237;-58
2023/10/08 02:59:03;;;;;;;0.10;0.10;;;;;;;14.66;100.00;99818.22;5113351;28;20193;-58
2023/10/08 03:01:55;;;;;;;0.10;0.10;;;;;;;14.56;100.00;99810.84;5112640;28;20205;-58
2023/10/08 03:04:45;;;;;;;0.10;0.10;;;;;;;14.56;100.00;99810.84;5113437;28;20190;-58
2023/10/08 03:07:33;;;;;;;0.10;0.10;;;;;;;14.47;100.00;99819.50;5114376;28;20719;-58
2023/10/08 03:10:20;;;;;;;0.10;0.10;;;;;;;14.56;100.00;99834.84;5113114;28;20320;-58
2023/10/08 03:13:12;;;;;;;0.10;0.10;;;;;;;14.58;100.00;99840.94;5114494;28;20190;-58
2023/10/08 03:16:08;;;;;;;0.10;0.10;;;;;;;14.43;100.00;99846.44;5113247;28;20210;-58
2023/10/08 03:18:57;;;;;;;0.10;0.10;;;;;;;14.46;100.00;99847.13;5113316;28;20197;-58
2023/10/08 03:21:50;;;;;;;0.10;0.10;;;;;;;14.59;100.00;99844.47;5114271;28;20190;-58
2023/10/08 03:24:40;;;;;;;0.10;0.10;;;;;;;14.42;100.00;99834.94;5114112;28;20202;-58
2023/10/08 03:27:26;;;;;;;0.10;0.10;;;;;;;14.38;100.00;99836.13;5114135;28;20677;-58
2023/10/08 03:30:15;;;;;;;0.10;0.10;;;;;;;14.32;100.00;99825.88;5112874;28;20198;-58
2023/10/08 03:33:10;;;;;;;0.10;0.10;;;;;;;14.34;100.00;99821.28;5112941;28;20198;-58
2023/10/08 03:35:57;;;;;;;0.10;0.10;;;;;;;14.32;100.00;99823.19;5113994;28;20699;-58
2023/10/08 03:38:49;;;;;;;0.10;0.10;;;;;;;14.28;100.00;99819.91;5113006;28;20283;-59
2023/10/08 03:41:39;;;;;;;0.10;0.10;;;;;;;14.28;100.00;99822.56;5113887;28;20701;-58
2023/10/08 03:44:29;;;;;;;0.10;0.10;;;;;;;14.16;100.00;99812.72;5112617;28;20263;-58
2023/10/08 03:47:18;;;;;;;0.10;0.10;;;;;;;14.11;100.00;99803.38;5113767;28;20301;-58
2023/10/08 03:50:07;;;;;;;0.10;0.10;;;;;;;14.06;100.00;99792.16;5113707;28;20673;-58
2023/10/08 03:52:55;;;;;;;0.10;0.10;;;;;;;13.92;100.00;99777.13;5113755;28;20186;-58
2023/10/08 03:55:43;;;;;;;0.10;0.10;;;;;;;14.13;100.00;99780.13;5113518;28;20189;-58
2023/10/08 03:58:38;;;;;;;0.10;0.10;;;;;;;14.24;100.00;99769.56;5112861;28;20265;-58
2023/10/08 04:01:29;;;;;;;0.10;0.10;;;;;;;14.24;100.00;99774.91;5113641;28;20190;-58
2023/10/08 04:04:16;;;;;;;0.10;0.10;;;;;;;14.37;100.00;99772.22;5113453;28;20193;-58
2023/10/08 04:10:34;;;;;;;0.10;0.10;;;;;;;14.42;100.00;99754.13;5113378;28;20232;-58
2023/10/08 04:13:23;;;;;;;0.10;0.10;;;;;;;14.55;100.00;99741.66;5113256;28;20198;-58
2023/10/08 04:16:10;;;;;;;0.10;0.10;;;;;;;14.56;100.00;99754.88;5113322;28;20206;-58
2023/10/08 04:18:57;;;;;;;0.10;0.10;;;;;;;14.50;100.00;99755.31;5113321;28;20201;-58
2023/10/08 04:21:44;;;;;;;0.10;0.10;;;;;;;14.55;100.00;99753.16;5113300;28;20256;-58
2023/10/08 04:24:34;;;;;;;0.10;0.10;;;;;;;14.68;100.00;99773.66;5113338;28;20270;-58
2023/10/08 04:27:22;;;;;;;0.10;0.10;;;;;;;14.80;100.00;99770.94;5113270;28;20244;-58
2023/10/08 04:30:13;;;;;;;0.10;0.10;;;;;;;14.98;100.00;99790.13;5112050;28;20236;-58
2023/10/08 04:33:06;;;;;;;0.10;0.10;;;;;;;14.98;100.00;99824.81;5113325;28;20677;-58
2023/10/08 04:35:55;;;;;;;0.10;0.10;;;;;;;14.82;100.00;99813.50;5113105;28;20683;-58
2023/10/08 04:38:45;;;;;;;0.10;0.10;;;;;;;14.67;100.00;99820.78;5113252;28;20198;-58
2023/10/08 04:41:33;;;;;;;0.10;0.10;;;;;;;14.45;100.00;99801.91;5113002;28;20194;-58
2023/10/08 04:44:21;;;;;;;0.10;0.10;;;;;;;14.58;100.00;99821.44;5111885;28;20327;-58
2023/10/08 04:47:31;;;;;;;0.10;0.10;;;;;;;14.65;100.00;99817.34;5113138;28;20237;-58
2023/10/08 04:50:20;;;;;;;0.10;0.10;;;;;;;14.72;100.00;99810.66;5113014;28;20193;-58
2023/10/08 04:53:08;;;;;;;0.10;0.10;;;;;;;14.70;100.00;99796.56;5113104;28;20261;-58
2023/10/08 04:55:55;;;;;;;0.10;0.10;;;;;;;14.90;100.00;99787.16;5113082;28;20248;-58
2023/10/08 04:58:46;;;;;;;0.10;0.10;;;;;;;15.04;100.00;99770.97;5111832;28;20209;-58
2023/10/08 05:01:47;;;;;;;0.10;0.10;;;;;;;15.23;100.00;99759.81;5112974;28;20199;-58
2023/10/08 05:04:55;;;;;;;0.10;0.10;;;;;;;15.35;100.00;99760.75;5112980;28;20194;-58
2023/10/08 05:11:00;;;;;;;0.10;0.10;;;;;;;15.31;100.00;99762.78;5112671;28;20332;-58
2023/10/08 05:14:01;;;;;;;0.10;0.10;;;;;;;15.17;100.00;99737.13;5111621;28;20817;-58
2023/10/08 05:17:00;;;;;;;0.10;0.10;;;;;;;14.79;100.00;99736.41;5112844;28;20222;-58
2023/10/08 05:20:01;;;;;;;0.10;0.10;;;;;;;14.78;100.00;99732.03;5112919;28;20244;-58
2023/10/08 05:22:55;;;;;;;0.10;0.10;;;;;;;14.87;100.00;99729.53;5112851;28;20191;-58
2023/10/08 05:25:57;;;;;;;0.00;0.00;;;;;;;15.03;100.00;99723.06;5116029;28;20206;-58
2023/10/08 05:29:00;;;;;;;0.10;0.10;;;;;;;15.16;100.00;99722.06;5115292;28;20202;-58
2023/10/08 05:31:47;;;;;;;0.10;0.10;;;;;;;15.28;100.00;99744.34;5116329;28;20684;-58
2023/10/08 05:34:42;;;;;;;0.10;0.10;;;;;;;15.13;100.00;99807.66;5116357;28;20197;-58
2023/10/08 05:37:37;;;;;;;0.10;0.10;;;;;;;14.88;100.00;99805.94;5116130;28;20218;-58
2023/10/08 05:40:54;;;;;;;0.10;0.10;;;;;;;14.79;100.00;99833.25;5116246;28;20218;-58
2023/10/08 05:43:55;;;;;;;0.10;0.10;;;;;;;14.65;100.00;99846.69;5114869;28;20248;-58
2023/10/08 05:47:02;;;;;;;0.10;0.10;;;;;;;14.61;100.00;99853.22;5116297;28;20186;-58
2023/10/08 05:50:28;;;;;;;0.10;0.10;;;;;;;14.36;100.00;99838.00;5115997;28;20320;-58
2023/10/08 05:53:15;;;;;;;0.10;0.10;;;;;;;14.32;100.00;99844.53;5115946;28;20553;-58
2023/10/08 05:56:16;;;;;;;0.10;0.10;;;;;;;14.48;100.00;99842.56;5115889;28;20209;-58
2023/10/08 05:59:15;;;;;;;0.10;0.10;;;;;;;14.63;100.00;99837.09;5114403;28;20194;-58
2023/10/08 06:02:26;;;;;;;0.10;0.10;;;;;;;14.69;100.00;99826.00;5115616;28;20198;-58
2023/10/08 06:05:20;;;;;;;0.10;0.10;;;;;;;14.79;100.00;99841.25;5115565;28;20285;-58
2023/10/08 06:08:12;;;;;;;0.00;0.00;;;;;;;14.86;100.00;99833.66;5115660;28;20256;-58
2023/10/08 06:11:00;;;;;;;0.10;0.10;;;;;;;14.83;100.00;99825.88;5115698;28;20243;-58
2023/10/08 06:13:55;;;;;;;0.10;0.10;;;;;;;14.92;100.00;99825.22;5114286;28;20222;-58
2023/10/08 06:16:43;;;;;;;0.10;0.10;;;;;;;14.83;100.00;99821.41;5114426;28;20198;-58
2023/10/08 06:19:30;;;;;;;0.10;0.10;;;;;;;14.79;100.00;99838.59;5115654;28;20190;-58
2023/10/08 06:22:18;;;;;;;0.10;0.10;;;;;;;15.00;100.00;99857.56;5115484;28;20202;-58
2023/10/08 06:25:18;;;;;;;0.10;0.10;;;;;;;14.97;100.00;99862.25;5115443;28;20198;-58
2023/10/08 06:28:08;;;;;;;0.10;0.10;;;;;;;14.96;100.00;99872.09;5115129;28;20537;-58
2023/10/08 06:30:56;;;;;;;0.10;0.10;;;;;;;14.97;100.00;99891.63;5115217;28;20198;-58
2023/10/08 06:33:45;;;;;;;0.00;0.00;;;;;;;15.13;100.00;99898.41;5114848;28;20201;-58
2023/10/08 06:36:32;;;;;;;0.10;0.10;;;;;;;15.16;100.00;99905.38;5114855;28;20268;-58
2023/10/08 06:39:25;;;;;;;0.10;0.10;;;;;;;15.16;100.00;83450.59;5114122;28;20259;-58
2023/10/08 06:42:14;;;;;;;0.10;0.10;;;;;;;15.37;100.00;99902.97;5115014;28;20199;-58
2023/10/08 06:45:01;;;;;;;0.00;0.00;;;;;;;15.54;100.00;99901.72;5113748;28;20303;-58
2023/10/08 06:47:48;;;;;;;0.10;0.10;;;;;;;15.44;100.00;99885.53;5114883;28;20285;-58
2023/10/08 06:50:35;;;;;;;0.10;0.10;;;;;;;15.36;100.00;99885.25;5114893;28;20185;-58
2023/10/08 06:53:22;;;;;;;0.10;0.10;;;;;;;15.43;100.00;99899.84;5114868;28;20194;-58
2023/10/08 06:56:12;;;;;;;0.10;0.10;;;;;;;15.71;100.00;99891.56;5114791;28;20320;-58
2023/10/08 06:59:01;;;;;;;0.03;0.03;;;;;;;15.85;100.00;99903.06;5113140;28;20214;-59
2023/10/08 07:01:51;;;;;;;0.10;0.10;;;;;;;15.66;100.00;99896.41;5114778;28;20219;-58
2023/10/08 07:04:39;;;;;;;0.10;0.10;;;;;;;15.63;100.00;99890.41;5114582;28;20209;-58
2023/10/08 07:07:31;;;;;;;0.10;0.10;;;;;;;15.64;100.00;99905.50;5113529;28;20186;-58
2023/10/08 07:10:19;;;;;;;0.10;0.10;;;;;;;15.66;100.00;99892.88;5114195;28;20300;-58
2023/10/08 07:13:07;;;;;;;0.00;0.00;;;;;;;15.62;100.00;99873.53;5113438;28;20194;-58
2023/10/08 07:15:56;;;;;;;0.10;0.10;;;;;;;-143.23;100.00;99873.53;5114323;28;20387;-58
2023/10/08 07:18:50;;;;;;;0.10;0.10;;;;;;;15.84;100.00;99878.16;5114213;28;20279;-58
2023/10/08 07:21:44;;;;;;;0.10;0.10;;;;;;;15.81;100.00;99874.84;5114291;28;20256;-58
2023/10/08 07:24:34;;;;;;;0.00;0.00;;;;;;;15.88;100.00;99879.63;5114082;28;20208;-58
2023/10/08 07:27:24;;;;;;;0.10;0.10;;;;;;;16.08;100.00;99861.25;5114172;28;20324;-58
2023/10/08 07:30:13;;;;;;;0.00;0.00;;;;;;;16.33;100.00;99860.25;5112760;28;20648;-58
2023/10/08 07:33:03;;;;;;;0.10;0.10;;;;;;;16.35;100.00;99885.06;5113974;28;20279;-58
2023/10/08 07:36:03;;;;;;;0.10;0.10;;;;;;;16.44;100.00;99881.69;5113906;28;20208;-58
2023/10/08 07:38:50;;;;;;;0.10;0.10;;;;;;;16.50;100.00;99881.19;5112722;28;20233;-58
2023/10/08 07:41:37;;;;;;;0.10;0.10;;;;;;;16.74;100.00;99875.81;5113848;28;20706;-58
2023/10/08 07:44:24;;;;;;;0.00;0.00;;;;;;;17.01;100.00;99878.16;5112503;28;20252;-58
2023/10/08 07:47:12;;;;;;;0.10;0.10;;;;;;;17.21;100.00;99874.72;5113226;28;20680;-58
2023/10/08 07:50:01;;;;;;;0.10;0.10;;;;;;;17.15;100.00;99883.25;5113763;28;20190;-58
2023/10/08 07:52:47;;;;;;;0.10;0.10;;;;;;;17.21;100.00;99880.09;5113735;28;20198;-58
2023/10/08 07:55:36;;;;;;;0.00;0.00;;;;;;;17.34;100.00;99893.34;5113601;28;20287;-58
2023/10/08 07:58:22;;;;;;;0.10;0.10;;;;;;;17.27;100.00;99881.41;5112855;28;20739;-58
2023/10/08 08:01:09;;;;;;;0.10;0.10;;;;;;;17.26;100.00;99895.78;5113604;28;20197;-58
2023/10/08 08:03:57;;;;;;;0.10;0.10;;;;;;;17.17;100.00;99905.38;5113461;28;20198;-59
2023/10/08 08:06:49;;;;;;;0.10;0.10;;;;;;;17.07;100.00;99913.28;5113532;28;20194;-58
2023/10/08 08:09:37;;;;;;;0.10;0.10;;;;;;;17.02;100.00;99915.50;5113277;28;20226;-58
2023/10/08 08:12:26;;;;;;;0.10;0.10;;;;;;;16.97;100.00;99916.81;5113344;28;20190;-59
2023/10/08 08:15:15;;;;;;;0.10;0.10;;;;;;;17.01;100.00;99937.88;5112040;28;20231;-59
2023/10/08 08:18:05;;;;;;;0.10;0.10;;;;;;;17.29;100.00;99947.28;5113302;28;20774;-59
2023/10/08 08:20:54;;;;;;;0.03;0.03;;;;;;;17.45;100.00;99939.69;5113227;28;20185;-58
2023/10/08 08:23:47;;;;;;;0.10;0.10;;;;;;;-144.59;100.00;99942.72;5113299;28;20229;-59
2023/10/08 08:26:39;;;;;;;0.10;0.10;;;;;;;17.61;100.00;99925.09;5113364;28;20190;-58
2023/10/08 08:29:26;;;;;;;0.10;0.10;;;;;;;17.97;100.00;99932.00;5114163;28;20292;-58
2023/10/08 08:32:15;;;;;;;0.10;0.10;;;;;;;18.04;100.00;99927.81;5113457;28;20206;-58
2023/10/08 08:35:07;;;;;;;0.10;0.10;;;;;;;18.45;100.00;99934.25;5113327;28;20187;-58
2023/10/08 08:37:54;;;;;;;0.10;0.10;;;;;;;18.48;100.00;99932.16;5113055;28;20312;-58
2023/10/08 08:40:43;;;;;;;0.10;0.10;;;;;;;18.00;100.00;99927.22;5113242;28;20688;-58
2023/10/08 08:43:33;;;;;;;0.10;0.10;;;;;;;18.16;100.00;99944.75;5111817;28;20202;-58
2023/10/08 08:46:20;;;;;;;0.10;0.10;;;;;;;18.45;100.00;99936.94;5113096;28;20198;-58
2023/10/08 08:49:09;;;;;;;0.10;0.10;;;;;;;18.63;100.00;99935.38;5113082;28;20197;-58
2023/10/08 08:52:00;;;;;;;0.10;0.10;;;;;;;18.64;100.00;99925.50;5112971;28;20201;-58
2023/10/08 08:54:47;;;;;;;0.10;0.10;;;;;;;18.82;100.00;99940.06;5113232;28;20202;-58
2023/10/08 08:57:35;;;;;;;0.10;0.10;;;;;;;18.89;100.00;99925.13;5113077;28;20263;-58
2023/10/08 09:00:25;;;;;;;0.10;0.10;;;;;;;18.94;100.00;99908.63;5114387;28;20726;-58
2023/10/08 09:03:13;;;;;;;0.10;0.10;;;;;;;19.17;100.00;99929.78;5116980;28;20236;-58
2023/10/08 09:06:01;;;;;;;0.00;0.00;;;;;;;19.14;100.00;99691.19;5116816;28;20252;-58
2023/10/08 09:08:49;;;;;;;0.10;0.10;;;;;;;19.38;100.00;99924.38;5116539;28;20237;-58
2023/10/08 09:11:40;;;;;;;0.00;0.00;;;;;;;19.47;100.00;99905.72;5116905;28;20198;-58
2023/10/08 09:14:31;;;;;;;0.10;0.10;;;;;;;19.22;100.00;99912.44;5115379;28;20198;-58
2023/10/08 09:17:18;;;;;;;0.10;0.10;;;;;;;19.33;100.00;99910.50;5116696;28;20201;-58
2023/10/08 09:20:07;;;;;;;0.10;0.10;;;;;;;19.68;100.00;99910.06;5116475;28;20262;-58
2023/10/08 09:23:08;;;;;;;0.00;0.00;;;;;;;19.86;100.00;99918.31;5116618;28;20194;-59
2023/10/08 09:26:02;;;;;;;0.03;0.03;;;;;;;20.97;100.00;99908.97;5116553;28;20198;-59
2023/10/08 09:28:51;;;;;;;0.10;0.10;;;;;;;-144.59;100.00;99908.97;5115115;28;20668;-59
2023/10/08 09:31:39;;;;;;;0.10;0.10;;;;;;;21.88;100.00;99924.31;5116125;28;20198;-59
2023/10/08 09:34:30;;;;;;;0.10;0.10;;;;;;;21.64;100.00;99932.97;5113706;28;20301;-59
2023/10/08 09:37:21;;;;;;;0.03;0.03;;;;;;;21.33;100.00;99929.72;5115418;28;20257;-58
2023/10/08 09:40:11;;;;;;;0.10;0.10;;;;;;;21.49;100.00;99922.81;5115094;28;20222;-58
2023/10/08 09:43:00;;;;;;;0.10;0.10;;;;;;;21.42;100.00;99944.13;5115326;28;20201;-59
2023/10/08 09:45:53;;;;;;;0.10;0.10;;;;;;;20.81;100.00;99945.41;5115476;28;20240;-58
2023/10/08 09:48:45;;;;;;;0.10;0.10;;;;;;;20.65;100.00;99955.91;5115523;28;20313;-59
2023/10/08 09:51:34;;;;;;;0.10;0.10;;;;;;;20.48;100.00;99967.41;5114962;28;20190;-58
2023/10/08 09:54:31;;;;;;;0.10;0.10;;;;;;;20.28;100.00;99953.91;5114825;28;20202;-58
2023/10/08 09:57:26;;;;;;;0.10;0.10;;;;;;;19.94;100.00;99952.56;5114858;28;20190;-59
2023/10/08 10:00:18;;;;;;;0.10;0.10;;;;;;;20.08;100.00;99948.66;5113620;28;20288;-59
2023/10/08 10:03:05;;;;;;;0.10;0.10;;;;;;;19.99;100.00;99953.03;5115006;28;20321;-58
2023/10/08 10:05:58;;;;;;;0.10;0.10;;;;;;;19.96;100.00;99958.66;5114607;28;20232;-58
2023/10/08 10:08:48;;;;;;;0.10;0.10;;;;;;;19.83;100.00;99966.16;5114851;28;20274;-58
2023/10/08 10:11:36;;;;;;;0.10;0.10;;;;;;;19.72;100.00;99977.84;5114143;28;20240;-58
2023/10/08 10:14:24;;;;;;;0.10;0.10;;;;;;;19.62;100.00;99976.97;5113596;28;20190;-59
2023/10/08 10:17:16;;;;;;;0.10;0.10;;;;;;;19.27;100.00;99974.66;5114683;28;20198;-59
2023/10/08 10:20:24;;;;;;;0.10;0.10;;;;;;;19.16;100.00;99987.19;5115311;28;20218;-59
2023/10/08 10:23:37;;;;;;;0.10;0.10;;;;;;;19.04;100.00;99998.13;5115397;28;20198;-58
2023/10/08 10:26:28;;;;;;;0.10;0.10;;;;;;;18.89;100.00;75227.00;5115349;28;20244;-59
2023/10/08 10:29:22;;;;;;;0.00;0.00;;;;;;;19.04;100.00;100008.88;5114040;28;20194;-58
2023/10/08 10:32:11;;;;;;;0.10;0.10;;;;;;;19.12;100.00;100028.72;5115130;28;20198;-58
2023/10/08 10:34:57;;;;;;;0.10;0.10;;;;;;;18.82;100.00;100036.72;5113227;28;20198;-58
2023/10/08 10:37:51;;;;;;;0.10;0.10;;;;;;;17.55;100.00;100046.13;5114176;28;20202;-58
2023/10/08 10:40:40;;;;;;;0.10;0.10;;;;;;;17.40;100.00;100053.56;5113227;28;20218;-58
2023/10/08 10:43:33;;;;;;;0.10;0.10;;;;;;;17.15;100.00;100062.63;5112984;28;20210;-58
2023/10/08 10:46:30;;;;;;;0.10;0.10;;;;;;;17.15;100.00;100062.63;5113987;28;20240;-58
2023/10/08 10:49:22;;;;;;;0.10;0.10;;;;;;;16.64;100.00;100076.28;5112801;28;20203;-58
2023/10/08 10:52:17;;;;;;;0.10;0.10;;;;;;;16.81;100.00;100064.34;5113399;28;20201;-58
2023/10/08 10:55:20;;;;;;;0.10;0.10;;;;;;;16.83;100.00;100065.94;5113334;28;20198;-58
2023/10/08 10:58:14;;;;;;;0.10;0.10;;;;;;;17.12;100.00;100055.69;5113944;28;20189;-58
2023/10/08 11:01:07;;;;;;;0.10;0.10;;;;;;;16.85;100.00;100045.25;5113666;28;20229;-58
2023/10/08 11:03:57;;;;;;;0.10;0.10;;;;;;;17.21;100.00;100053.28;5113411;28;20210;-59
2023/10/08 11:06:45;;;;;;;0.10;0.10;;;;;;;17.06;100.00;100037.41;5114057;28;20194;-58
2023/10/08 11:09:38;;;;;;;0.10;0.10;;;;;;;16.93;100.00;100058.06;5113050;28;20230;-58
2023/10/08 11:12:42;;;;;;;0.07;0.07;;;;;;;16.88;100.00;100046.84;5113438;28;20198;-58
2023/10/08 11:15:37;;;;;;;0.10;0.10;;;;;;;16.68;100.00;100051.00;5112220;28;20202;-58
2023/10/08 11:18:28;;;;;;;0.10;0.10;;;;;;;16.87;100.00;100047.81;5112445;28;20202;-58
2023/10/08 11:21:16;;;;;;;0.10;0.10;;;;;;;16.90;100.00;100042.25;5112582;28;20221;-58
2023/10/08 11:24:09;;;;;;;0.10;0.10;;;;;;;16.87;100.00;100037.94;5113359;28;20260;-58
2023/10/08 11:27:15;;;;;;;0.00;0.00;;;;;;;17.29;100.00;100034.78;5113288;28;20257;-58
2023/10/08 11:30:02;;;;;;;0.10;0.10;;;;;;;17.20;100.00;100040.88;5112049;28;20664;-58
2023/10/08 11:32:56;;;;;;;0.10;0.10;;;;;;;17.23;100.00;100048.66;5112592;28;20260;-58
2023/10/08 11:35:58;;;;;;;0.10;0.10;;;;;;;17.35;100.00;100032.47;5113418;28;20551;-58
2023/10/08 11:38:50;;;;;;;0.10;0.10;;;;;;;17.01;100.00;100038.75;5112805;28;20323;-58
2023/10/08 11:41:49;;;;;;;0.10;0.10;;;;;;;17.19;100.00;100049.88;5113117;28;20194;-58
2023/10/08 11:44:36;;;;;;;0.10;0.10;;;;;;;17.08;100.00;100048.00;5111905;28;20194;-58
2023/10/08 11:47:25;;;;;;;0.10;0.10;;;;;;;17.21;100.00;100046.09;5112324;28;20190;-58
2023/10/08 11:50:17;;;;;;;0.10;0.10;;;;;;;17.29;100.00;100041.00;5113040;28;20190;-59
2023/10/08 11:53:05;;;;;;;0.00;0.00;;;;;;;17.52;100.00;100039.19;5113044;28;20304;-58
2023/10/08 11:55:56;;;;;;;0.10;0.10;;;;;;;17.37;100.00;100046.63;5112359;28;20193;-58
2023/10/08 11:58:44;;;;;;;0.10;0.10;;;;;;;17.47;100.00;100041.41;5111597;28;20186;-58
2023/10/08 12:01:35;;;;;;;0.00;0.00;;;;;;;17.74;100.00;100043.72;5111755;28;20328;-58
2023/10/08 12:04:22;;;;;;;0.00;0.00;;;;;;;17.76;100.00;100041.81;5112911;28;20206;-58
2023/10/08 12:07:11;;;;;;;0.07;0.07;;;;;;;18.01;100.00;100046.88;5112554;28;20197;-59
2023/10/08 12:09:58;;;;;;;0.10;0.10;;;;;;;18.10;100.00;100039.94;5111839;28;20243;-58
2023/10/08 12:12:45;;;;;;;0.10;0.10;;;;;;;17.96;100.00;100048.25;5112602;28;20263;-58
2023/10/08 12:15:38;;;;;;;0.10;0.10;;;;;;;17.80;100.00;100045.09;5111633;28;20209;-58
2023/10/08 12:18:25;;;;;;;0.10;0.10;;;;;;;18.01;100.00;100040.69;5112260;28;20197;-58
2023/10/08 12:21:15;;;;;;;0.10;0.10;;;;;;;18.27;100.00;100042.09;5112435;28;20270;-58
2023/10/08 12:24:05;;;;;;;0.00;0.00;;;;;;;18.14;100.00;100056.63;5112157;28;20359;-58
2023/10/08 12:26:52;;;;;;;0.10;0.10;;;;;;;17.66;100.00;100044.34;5112401;28;20199;-58
2023/10/08 12:29:39;;;;;;;0.00;0.00;;;;;;;17.77;100.00;100040.81;5111171;28;20194;-58
2023/10/08 12:32:26;;;;;;;0.10;0.10;;;;;;;18.00;100.00;100038.97;5112173;28;20202;-58
2023/10/08 12:35:13;;;;;;;0.00;0.00;;;;;;;18.13;100.00;100031.63;5117468;28;20316;-58
2023/10/08 12:38:00;;;;;;;0.10;0.10;;;;;;;18.07;100.00;100033.97;5117516;28;20197;-58
2023/10/08 12:40:52;;;;;;;0.00;0.00;;;;;;;18.12;100.00;100034.44;5117204;28;20217;-58
2023/10/08 12:43:42;;;;;;;0.10;0.10;;;;;;;18.50;100.00;100037.50;5115890;28;20202;-58
2023/10/08 12:46:31;;;;;;;0.10;0.10;;;;;;;18.21;100.00;100029.19;5117072;28;20194;-58
2023/10/08 12:49:20;;;;;;;0.10;0.10;;;;;;;18.38;100.00;100025.13;5117235;28;20243;-58
2023/10/08 12:52:08;;;;;;;0.10;0.10;;;;;;;17.78;100.00;100023.78;5117155;28;20232;-58
2023/10/08 12:54:58;;;;;;;0.00;0.00;;;;;;;17.89;100.00;100026.44;5117193;28;20193;-58
2023/10/08 12:57:53;;;;;;;0.10;0.10;;;;;;;17.83;100.00;100018.03;5117203;28;20193;-58
2023/10/08 13:00:41;;;;;;;0.10;0.10;;;;;;;17.73;100.00;100018.75;5116439;28;20228;-58
2023/10/08 13:03:31;;;;;;;0.10;0.10;;;;;;;17.76;100.00;100023.06;5117026;27;20203;-58
2023/10/08 13:06:22;;;;;;;0.10;0.10;;;;;;;17.56;100.00;100021.88;5116999;28;20202;-58
2023/10/08 13:09:12;;;;;;;0.10;0.10;;;;;;;17.66;100.00;100020.22;5116739;28;20218;-57
2023/10/08 13:12:00;;;;;;;0.10;0.10;;;;;;;18.01;100.00;100024.59;5116887;28;20194;-58
2023/10/08 13:14:49;;;;;;;0.10;0.10;;;;;;;17.85;100.00;100018.75;5115299;28;20198;-57
2023/10/08 13:17:36;;;;;;;0.00;0.00;;;;;;;17.64;100.00;100024.81;5116607;28;20688;-57
2023/10/08 13:20:25;;;;;;;0.10;0.10;;;;;;;17.76;100.00;100016.81;5116566;28;20688;-57